createdAt,value
2019-05-11T00:02:19.292Z,95944.83
2019-05-11T00:04:50.761Z,95946.81
2019-05-11T00:07:20.871Z,95933.10
2019-05-11T00:09:57.910Z,95917.14
2019-05-11T00:12:23.722Z,95917.52
2019-05-11T00:14:53.759Z,95920.41
2019-05-11T00:17:23.936Z,95924.58
2019-05-11T00:19:54.021Z,95920.38
2019-05-11T00:22:24.160Z,95904.59
2019-05-11T00:24:54.116Z,95889.28
2019-05-11T00:27:24.570Z,95886.88
2019-05-11T00:29:54.981Z,95902.88
2019-05-11T00:32:24.974Z,95892.58
2019-05-11T00:34:54.973Z,95885.79
2019-05-11T00:37:25.042Z,95878.53
2019-05-11T00:39:55.002Z,95873.08
2019-05-11T00:42:25.041Z,95870.66
2019-05-11T00:44:55.090Z,95875.20
2019-05-11T00:47:25.124Z,95875.04
2019-05-11T00:49:55.289Z,95863.91
2019-05-11T00:52:25.409Z,95869.27
2019-05-11T00:54:55.477Z,95858.93
2019-05-11T00:57:25.505Z,95859.44
2019-05-11T00:59:55.481Z,95838.52
2019-05-11T01:02:25.607Z,95834.99
2019-05-11T01:04:55.603Z,95832.75
2019-05-11T01:07:25.710Z,95824.06
2019-05-11T01:09:55.754Z,95826.15
2019-05-11T01:12:25.766Z,95816.80
2019-05-11T01:14:55.909Z,95820.53
2019-05-11T01:17:26.008Z,95813.11
2019-05-11T01:19:56.024Z,95815.36
2019-05-11T01:22:26.184Z,95812.47
2019-05-11T01:24:56.211Z,95817.34
2019-05-11T01:27:26.189Z,95812.67
2019-05-11T01:29:56.280Z,95814.28
2019-05-11T01:32:26.335Z,95809.14
2019-05-11T01:34:56.332Z,95800.08
2019-05-11T01:37:26.372Z,95789.79
2019-05-11T01:39:56.417Z,95787.03
2019-05-11T01:42:27.043Z,95792.03
2019-05-11T01:44:57.292Z,95796.85
2019-05-11T01:47:27.584Z,95801.69
2019-05-11T01:49:57.672Z,95798.31
2019-05-11T01:52:27.771Z,95800.06
2019-05-11T01:54:57.768Z,95799.74
2019-05-11T01:57:27.794Z,95801.03
2019-05-11T01:59:57.745Z,95801.97
2019-05-11T02:02:27.829Z,95797.14
2019-05-11T02:05:15.639Z,95791.02
2019-05-11T02:07:45.642Z,95795.58
2019-05-11T02:10:16.222Z,95793.00
2019-05-11T02:12:46.407Z,95799.57
2019-05-11T02:15:16.463Z,95791.16
2019-05-11T02:17:46.468Z,95787.11
2019-05-11T02:20:16.858Z,95791.63
2019-05-11T02:22:47.050Z,95789.02
2019-05-11T02:25:17.732Z,95782.86
2019-05-11T02:27:47.765Z,95785.28
2019-05-11T02:30:18.272Z,95772.03
2019-05-11T02:32:48.721Z,95760.25
2019-05-11T02:35:19.047Z,95760.06
2019-05-11T02:37:49.137Z,95746.63
2019-05-11T02:40:19.696Z,95740.97
2019-05-11T02:42:49.741Z,95743.98
2019-05-11T02:45:43.853Z,95744.62
2019-05-11T02:48:14.017Z,95748.29
2019-05-11T02:50:45.582Z,95748.25
2019-05-11T02:53:16.469Z,95737.42
2019-05-11T02:55:49.042Z,95734.16
2019-05-11T02:58:19.229Z,95737.33
2019-05-11T03:00:49.733Z,95732.13
2019-05-11T03:03:20.056Z,95743.86
2019-05-11T03:05:50.403Z,95742.70
2019-05-11T03:08:20.318Z,95744.30
2019-05-11T03:10:50.447Z,95736.06
2019-05-11T03:13:20.534Z,95733.59
2019-05-11T03:15:50.747Z,95737.79
2019-05-11T03:18:20.781Z,95729.25
2019-05-11T03:20:50.714Z,95724.44
2019-05-11T03:23:20.924Z,95721.36
2019-05-11T03:25:50.931Z,95717.67
2019-05-11T03:28:21.157Z,95723.17
2019-05-11T03:30:51.146Z,95722.26
2019-05-11T03:33:21.092Z,95724.39
2019-05-11T03:35:51.113Z,95733.45
2019-05-11T03:38:21.033Z,95729.75
2019-05-11T03:40:51.072Z,95732.34
2019-05-11T03:43:21.145Z,95728.16
2019-05-11T03:45:51.079Z,95731.06
2019-05-11T03:48:21.204Z,95732.50
2019-05-11T03:50:51.422Z,95731.19
2019-05-11T03:53:21.814Z,95732.11
2019-05-11T03:55:51.753Z,95723.68
2019-05-11T03:58:25.873Z,95722.18
2019-05-11T04:00:53.549Z,95728.31
2019-05-11T04:03:23.600Z,95725.51
2019-05-11T04:05:53.637Z,95724.00
2019-05-11T04:08:23.689Z,95718.97
2019-05-11T04:10:53.709Z,95715.19
2019-05-11T04:13:23.792Z,95712.42
2019-05-11T04:15:53.891Z,95710.74
2019-05-11T04:18:24.018Z,95709.40
2019-05-11T04:20:53.942Z,95705.33
2019-05-11T04:23:23.908Z,95714.48
2019-05-11T04:25:54.404Z,95700.74
2019-05-11T04:28:24.631Z,95717.66
2019-05-11T04:30:54.654Z,95721.36
2019-05-11T04:33:24.706Z,95726.28
2019-05-11T04:35:54.790Z,95721.73
2019-05-11T04:38:24.949Z,95725.25
2019-05-11T04:40:55.237Z,95723.42
2019-05-11T04:43:25.216Z,95717.08
2019-05-11T04:45:55.212Z,95706.72
2019-05-11T04:48:25.414Z,95719.13
2019-05-11T04:50:55.515Z,95724.25
2019-05-11T04:53:25.649Z,95719.34
2019-05-11T04:55:55.872Z,95718.64
2019-05-11T04:58:27.246Z,95715.52
2019-05-11T05:00:57.560Z,95720.97
2019-05-11T05:03:40.278Z,95718.48
2019-05-11T05:06:21.311Z,95716.84
2019-05-11T05:08:31.363Z,95714.72
2019-05-11T05:11:01.286Z,95704.84
2019-05-11T05:13:31.530Z,95715.92
2019-05-11T05:16:01.850Z,95724.44
2019-05-11T05:18:31.898Z,95723.43
2019-05-11T05:21:01.886Z,95729.51
2019-05-11T05:23:32.361Z,95731.89
2019-05-11T05:26:02.395Z,95731.34
2019-05-11T05:28:32.433Z,95739.84
2019-05-11T05:31:02.455Z,95732.36
2019-05-11T05:33:33.410Z,95731.02
2019-05-11T05:36:04.239Z,95731.64
2019-05-11T05:38:34.419Z,95734.34
2019-05-11T05:41:04.448Z,95748.67
2019-05-11T05:43:34.990Z,95740.20
2019-05-11T05:46:05.084Z,95736.77
2019-05-11T05:48:35.251Z,95745.41
2019-05-11T05:51:05.449Z,95745.69
2019-05-11T05:53:36.041Z,95755.14
2019-05-11T05:56:06.175Z,95756.37
2019-05-11T05:58:36.259Z,95756.84
2019-05-11T06:01:09.900Z,95758.75
2019-05-11T06:03:38.219Z,95756.29
2019-05-11T06:06:08.145Z,95766.10
2019-05-11T06:08:38.343Z,95760.27
2019-05-11T06:11:08.443Z,95764.64
2019-05-11T06:13:45.006Z,95760.59
2019-05-11T06:16:10.483Z,95755.61
2019-05-11T06:18:40.491Z,95762.03
2019-05-11T06:21:10.617Z,95764.75
2019-05-11T06:23:41.083Z,95766.20
2019-05-11T06:26:11.627Z,95765.00
2019-05-11T06:28:41.628Z,95773.08
2019-05-11T06:31:11.704Z,95775.84
2019-05-11T06:33:41.810Z,95772.06
2019-05-11T06:36:12.194Z,95764.73
2019-05-11T06:38:42.195Z,95766.39
2019-05-11T06:41:12.326Z,95770.77
2019-05-11T06:43:42.340Z,95766.55
2019-05-11T06:46:12.510Z,95764.30
2019-05-11T06:48:42.505Z,95766.62
2019-05-11T06:51:12.662Z,95765.02
2019-05-11T06:53:42.652Z,95759.24
2019-05-11T06:56:12.813Z,95759.60
2019-05-11T06:58:45.493Z,95753.95
2019-05-11T07:01:17.695Z,95748.01
2019-05-11T07:03:48.068Z,95757.30
2019-05-11T07:06:18.122Z,95755.56
2019-05-11T07:08:48.177Z,95760.75
2019-05-11T07:11:18.476Z,95755.67
2019-05-11T07:13:48.884Z,95773.23
2019-05-11T07:16:19.241Z,95773.58
2019-05-11T07:18:49.754Z,95772.94
2019-05-11T07:21:20.398Z,95770.94
2019-05-11T07:23:50.492Z,95772.76
2019-05-11T07:26:20.917Z,95779.73
2019-05-11T07:28:53.185Z,95770.70
2019-05-11T07:31:23.492Z,95758.84
2019-05-11T07:33:53.663Z,95764.72
2019-05-11T07:36:23.624Z,95759.77
2019-05-11T07:38:53.690Z,95759.20
2019-05-11T07:41:29.894Z,95757.13
2019-05-11T07:44:00.188Z,95762.64
2019-05-11T07:46:40.633Z,95768.03
2019-05-11T07:49:14.119Z,95764.45
2019-05-11T07:51:58.501Z,95757.64
2019-05-11T07:54:24.057Z,95765.03
2019-05-11T07:56:58.215Z,95757.78
2019-05-11T07:59:28.898Z,95758.81
2019-05-11T08:01:59.245Z,95756.71
2019-05-11T08:04:30.143Z,95755.84
2019-05-11T08:07:00.205Z,95755.52
2019-05-11T08:09:30.413Z,95761.45
2019-05-11T08:12:00.665Z,95757.70
2019-05-11T08:14:30.743Z,95764.38
2019-05-11T08:17:01.359Z,95762.89
2019-05-11T08:19:52.631Z,95760.27
2019-05-11T08:22:23.107Z,95766.17
2019-05-11T08:24:53.324Z,95771.60
2019-05-11T08:27:23.284Z,95774.27
2019-05-11T08:29:53.373Z,95772.19
2019-05-11T08:32:23.483Z,95765.82
2019-05-11T08:34:53.508Z,95761.19
2019-05-11T08:37:23.560Z,95764.83
2019-05-11T08:39:53.604Z,95770.45
2019-05-11T08:42:23.615Z,95769.75
2019-05-11T08:44:53.622Z,95768.45
2019-05-11T08:47:23.889Z,95774.22
2019-05-11T08:49:54.278Z,95778.20
2019-05-11T08:52:24.275Z,95796.26
2019-05-11T08:54:54.762Z,95785.87
2019-05-11T08:57:25.071Z,95796.55
2019-05-11T08:59:55.138Z,95813.02
2019-05-11T09:02:27.635Z,95804.46
2019-05-11T09:04:58.889Z,95797.61
2019-05-11T09:07:28.933Z,95791.83
2019-05-11T09:09:58.963Z,95800.19
2019-05-11T09:12:29.185Z,95797.50
2019-05-11T09:14:59.369Z,95810.67
2019-05-11T09:17:30.185Z,95817.64
2019-05-11T09:20:00.310Z,95830.70
2019-05-11T09:22:30.345Z,95833.69
2019-05-11T09:25:00.558Z,95828.95
2019-05-11T09:27:32.174Z,95836.05
2019-05-11T09:30:02.563Z,95838.25
2019-05-11T09:32:32.624Z,95835.22
2019-05-11T09:35:02.767Z,95844.08
2019-05-11T09:37:32.711Z,95858.14
2019-05-11T09:40:02.714Z,95842.48
2019-05-11T09:42:32.764Z,95833.71
2019-05-11T09:45:02.815Z,95842.73
2019-05-11T09:47:32.928Z,95837.66
2019-05-11T09:50:03.641Z,95840.45
2019-05-11T09:52:34.021Z,95832.59
2019-05-11T09:55:05.560Z,95844.39
2019-05-11T09:57:35.520Z,95826.58
2019-05-11T10:00:08.684Z,95823.03
2019-05-11T10:02:38.762Z,95831.08
2019-05-11T10:05:09.936Z,95830.42
2019-05-11T10:07:40.301Z,95825.83
2019-05-11T10:10:10.544Z,95833.86
2019-05-11T10:12:40.843Z,95830.03
2019-05-11T10:15:11.435Z,95834.38
2019-05-11T10:17:41.658Z,95831.22
2019-05-11T10:20:11.940Z,95815.03
2019-05-11T10:22:48.688Z,95826.10
2019-05-11T10:25:19.168Z,95821.02
2019-05-11T10:27:49.304Z,95829.83
2019-05-11T10:30:19.794Z,95830.09
2019-05-11T10:32:50.305Z,95834.80
2019-05-11T10:35:20.427Z,95831.61
2019-05-11T10:37:50.472Z,95840.13
2019-05-11T10:40:20.714Z,95847.19
2019-05-11T10:42:50.842Z,95843.83
2019-05-11T10:45:23.311Z,95849.27
2019-05-11T10:47:57.276Z,95844.71
2019-05-11T10:50:25.168Z,95839.33
2019-05-11T10:52:55.225Z,95842.88
2019-05-11T10:55:27.824Z,95839.52
2019-05-11T10:57:58.050Z,95841.55
2019-05-11T11:00:28.711Z,95845.84
2019-05-11T11:02:58.899Z,95849.47
2019-05-11T11:05:29.039Z,95848.09
2019-05-11T11:07:59.154Z,95836.58
2019-05-11T11:10:29.738Z,95840.34
2019-05-11T11:12:59.921Z,95834.24
2019-05-11T11:15:30.102Z,95836.02
2019-05-11T11:18:00.110Z,95841.80
2019-05-11T11:20:30.620Z,95836.43
2019-05-11T11:23:01.251Z,95837.90
2019-05-11T11:25:31.502Z,95835.52
2019-05-11T11:28:01.725Z,95844.49
2019-05-11T11:30:31.826Z,95839.08
2019-05-11T11:33:01.988Z,95843.36
2019-05-11T11:38:28.514Z,95851.56
2019-05-11T11:40:58.915Z,95844.55
2019-05-11T11:43:31.238Z,95852.41
2019-05-11T11:46:13.846Z,95854.09
2019-05-11T11:48:48.802Z,95846.05
2019-05-11T11:51:19.142Z,95844.69
2019-05-11T11:54:08.785Z,95852.11
2019-05-11T11:56:49.248Z,95848.55
2019-05-11T11:59:19.466Z,95853.36
2019-05-11T12:01:49.594Z,95851.73
2019-05-11T12:04:19.639Z,95850.61
2019-05-11T12:06:49.600Z,95863.22
2019-05-11T12:09:19.719Z,95855.84
2019-05-11T12:11:49.760Z,95854.30
2019-05-11T12:14:19.746Z,95860.16
2019-05-11T12:17:04.095Z,95866.85
2019-05-11T12:19:21.575Z,95856.67
2019-05-11T12:21:51.576Z,95852.94
2019-05-11T12:24:21.674Z,95860.56
2019-05-11T12:26:51.958Z,95850.11
2019-05-11T12:29:22.209Z,95855.88
2019-05-11T12:31:52.457Z,95850.59
2019-05-11T12:34:22.812Z,95845.23
2019-05-11T12:36:52.789Z,95846.37
2019-05-11T12:39:23.002Z,95840.81
2019-05-11T12:41:53.182Z,95839.88
2019-05-11T12:44:23.227Z,95837.44
2019-05-11T12:46:53.230Z,95830.03
2019-05-11T12:49:23.264Z,95828.41
2019-05-11T12:51:53.826Z,95818.37
2019-05-11T12:54:23.891Z,95805.87
2019-05-11T12:56:53.895Z,95801.62
2019-05-11T12:59:24.033Z,95815.00
2019-05-11T13:01:54.089Z,95818.80
2019-05-11T13:04:24.169Z,95827.99
2019-05-11T13:06:54.143Z,95824.62
2019-05-11T13:09:24.188Z,95837.72
2019-05-11T13:11:54.162Z,95836.03
2019-05-11T13:14:24.103Z,95835.59
2019-05-11T13:16:55.853Z,95841.64
2019-05-11T13:19:28.229Z,95845.73
2019-05-11T13:21:59.037Z,95842.78
2019-05-11T13:24:29.123Z,95840.08
2019-05-11T13:26:59.858Z,95845.19
2019-05-11T13:29:29.828Z,95848.91
2019-05-11T13:32:00.050Z,95892.15
2019-05-11T13:34:31.453Z,95920.59
2019-05-11T13:37:01.652Z,95968.83
2019-05-11T13:39:31.589Z,95987.84
2019-05-11T13:42:01.522Z,95941.06
2019-05-11T13:44:31.639Z,95948.92
2019-05-11T13:47:01.722Z,95934.75
2019-05-11T13:49:32.613Z,95927.31
2019-05-11T13:52:03.422Z,95931.47
2019-05-11T13:54:33.557Z,95932.56
2019-05-11T13:57:04.229Z,95940.17
2019-05-11T13:59:34.428Z,95945.27
2019-05-11T14:02:04.528Z,95938.89
2019-05-11T14:04:35.166Z,95940.80
2019-05-11T14:07:05.272Z,95945.17
2019-05-11T14:09:35.285Z,95935.52
2019-05-11T14:12:07.569Z,95936.22
2019-05-11T14:14:37.719Z,95938.55
2019-05-11T14:17:08.845Z,95939.02
2019-05-11T14:19:39.051Z,95957.44
2019-05-11T14:22:09.177Z,95981.07
2019-05-11T14:24:39.247Z,95964.11
2019-05-11T14:27:09.448Z,95974.86
2019-05-11T14:29:40.730Z,95981.45
2019-05-11T14:32:10.904Z,95991.86
2019-05-11T14:34:40.993Z,96008.41
2019-05-11T14:37:11.031Z,96016.20
2019-05-11T14:39:41.257Z,96028.84
2019-05-11T14:42:14.936Z,96037.29
2019-05-11T14:44:45.055Z,96033.56
2019-05-11T14:47:18.225Z,96041.00
2019-05-11T14:49:48.429Z,96048.14
2019-05-11T14:52:18.919Z,96060.63
2019-05-11T14:54:48.990Z,96042.99
2019-05-11T14:57:19.043Z,96038.63
2019-05-11T14:59:49.486Z,96038.02
2019-05-11T15:02:37.728Z,96025.91
2019-05-11T15:05:08.821Z,96033.19
2019-05-11T15:07:38.901Z,96039.98
2019-05-11T15:10:10.543Z,96038.50
2019-05-11T15:12:40.549Z,96059.83
2019-05-11T15:15:11.340Z,96061.13
2019-05-11T15:17:41.372Z,96064.05
2019-05-11T15:20:12.743Z,96084.13
2019-05-11T15:22:42.936Z,96095.48
2019-05-11T15:25:20.079Z,96106.52
2019-05-11T15:27:50.498Z,96123.05
2019-05-11T15:30:22.417Z,96123.72
2019-05-11T15:32:52.870Z,96130.88
2019-05-11T15:35:23.179Z,96125.09
2019-05-11T15:37:53.505Z,96127.20
2019-05-11T15:40:23.949Z,96132.56
2019-05-11T15:42:54.278Z,96128.05
2019-05-11T15:45:25.029Z,96129.33
2019-05-11T15:47:55.391Z,96127.42
2019-05-11T15:50:25.533Z,96136.66
2019-05-11T15:52:57.665Z,96142.95
2019-05-11T15:55:27.953Z,96137.84
2019-05-11T15:57:57.925Z,96139.51
2019-05-11T16:00:33.893Z,96138.25
2019-05-11T16:03:04.130Z,96143.29
2019-05-11T16:05:34.119Z,96139.92
2019-05-11T16:08:04.252Z,96143.02
2019-05-11T16:10:34.529Z,96144.31
2019-05-11T16:13:04.556Z,96147.88
2019-05-11T16:15:35.564Z,96152.89
2019-05-11T16:18:08.158Z,96162.41
2019-05-11T16:20:37.615Z,96168.22
2019-05-11T16:23:07.635Z,96181.29
2019-05-11T16:25:38.240Z,96185.03
2019-05-11T16:28:10.502Z,96190.69
2019-05-11T16:30:40.643Z,96188.75
2019-05-11T16:33:10.668Z,96207.64
2019-05-11T16:35:40.676Z,96202.65
2019-05-11T16:38:10.980Z,96212.36
2019-05-11T16:40:41.010Z,96204.98
2019-05-11T16:43:11.128Z,96207.26
2019-05-11T16:45:41.209Z,96218.92
2019-05-11T16:48:11.219Z,96216.84
2019-05-11T16:50:41.270Z,96211.20
2019-05-11T16:53:11.363Z,96204.58
2019-05-11T16:55:41.351Z,96217.98
2019-05-11T16:58:11.313Z,96227.36
2019-05-11T17:00:42.305Z,96233.19
2019-05-11T17:03:12.615Z,96242.23
2019-05-11T17:05:42.684Z,96249.97
2019-05-11T17:08:12.748Z,96250.14
2019-05-11T17:10:44.655Z,96262.89
2019-05-11T17:13:14.707Z,96262.90
2019-05-11T17:15:44.879Z,96271.94
2019-05-11T17:18:14.934Z,96279.22
2019-05-11T17:20:44.939Z,96278.87
2019-05-11T17:23:15.357Z,96284.21
2019-05-11T17:25:48.372Z,96293.40
2019-05-11T17:28:18.581Z,96311.82
2019-05-11T17:30:48.664Z,96325.02
2019-05-11T17:33:20.038Z,96340.52
2019-05-11T17:35:50.210Z,96343.73
2019-05-11T17:38:20.262Z,96348.44
2019-05-11T17:40:50.315Z,96359.89
2019-05-11T17:43:20.519Z,96359.23
2019-05-11T17:45:50.757Z,96368.76
2019-05-11T17:48:21.147Z,96370.34
2019-05-11T17:50:51.282Z,96378.09
2019-05-11T17:53:21.320Z,96395.34
2019-05-11T17:55:51.689Z,96396.31
2019-05-11T17:58:22.775Z,96408.87
2019-05-11T18:01:00.534Z,96417.72
2019-05-11T18:03:48.809Z,96412.41
2019-05-11T18:06:23.295Z,96424.96
2019-05-11T18:11:42.488Z,96435.89
2019-05-11T18:14:18.495Z,96444.91
2019-05-11T18:16:58.919Z,96446.04
2019-05-11T18:19:31.673Z,96450.05
2019-05-11T18:22:01.562Z,96455.84
2019-05-11T18:24:33.904Z,96455.03
2019-05-11T18:32:31.178Z,96470.77
2019-05-11T18:37:12.062Z,96483.33
2019-05-11T18:37:47.820Z,96482.95
2019-05-11T18:40:53.011Z,96500.04
2019-05-11T18:43:01.929Z,96505.59
2019-05-11T18:45:50.646Z,96516.38
2019-05-11T18:48:28.937Z,96523.77
2019-05-11T18:51:16.121Z,96530.36
2019-05-11T18:53:43.027Z,96535.97
2019-05-11T18:56:18.203Z,96538.23
2019-05-11T18:59:19.312Z,96550.78
2019-05-11T19:02:32.019Z,96544.83
2019-05-11T19:04:34.675Z,96558.16
2019-05-11T19:07:16.860Z,96562.02
2019-05-11T19:10:13.433Z,96582.92
2019-05-11T19:15:19.484Z,96586.29
2019-05-11T19:17:54.982Z,96591.41
2019-05-11T19:20:45.613Z,96603.66
2019-05-11T19:23:30.399Z,96602.36
2019-05-11T19:26:08.722Z,96607.01
2019-05-11T19:28:46.823Z,96614.88
2019-05-11T19:31:27.899Z,96622.92
2019-05-11T19:34:14.064Z,96630.92
2019-05-11T19:36:48.389Z,96643.97
2019-05-11T19:42:02.466Z,96655.06
2019-05-11T19:45:29.230Z,96664.41
2019-05-11T19:50:43.484Z,96674.19
2019-05-11T19:52:57.771Z,96684.13
2019-05-11T19:55:28.299Z,96684.42
2019-05-11T19:58:02.832Z,96703.72
2019-05-11T20:03:40.274Z,96710.78
2019-05-11T20:06:18.047Z,96718.33
2019-05-11T20:08:52.694Z,96733.27
2019-05-11T20:11:33.094Z,96732.73
2019-05-11T20:14:17.566Z,96738.34
2019-05-11T20:17:55.506Z,96752.45
2019-05-11T20:19:38.379Z,96747.76
2019-05-11T20:22:20.755Z,96753.66
2019-05-11T20:25:03.483Z,96758.11
2019-05-11T20:27:40.620Z,96762.27
2019-05-11T20:30:13.588Z,96757.08
2019-05-11T20:32:55.862Z,96770.58
2019-05-11T20:37:01.105Z,96772.80
2019-05-11T20:38:29.635Z,96775.44
2019-05-11T20:40:57.926Z,96772.19
2019-05-11T20:43:32.517Z,96771.48
2019-05-11T20:46:54.327Z,96772.77
2019-05-11T20:48:48.509Z,96779.53
2019-05-11T20:51:36.556Z,96782.55
2019-05-11T20:54:15.130Z,96780.62
2019-05-11T20:56:53.903Z,96787.84
2019-05-11T20:59:31.901Z,96793.28
2019-05-11T21:04:38.451Z,96802.54
2019-05-11T21:07:08.473Z,96820.69
2019-05-11T21:09:41.388Z,96813.09
2019-05-11T21:12:20.568Z,96823.03
2019-05-11T21:17:40.790Z,96832.78
2019-05-11T21:20:29.515Z,96828.69
2019-05-11T21:23:00.091Z,96836.02
2019-05-11T21:25:49.434Z,96840.00
2019-05-11T21:28:30.349Z,96858.30
2019-05-11T21:31:00.995Z,96857.30
2019-05-11T21:33:32.618Z,96861.33
2019-05-11T21:36:05.896Z,96868.68
2019-05-11T21:38:42.602Z,96876.05
2019-05-11T21:41:20.109Z,96880.70
2019-05-11T21:43:58.550Z,96880.70
2019-05-11T21:46:56.590Z,96882.92
2019-05-11T21:49:04.781Z,96892.85
2019-05-11T21:51:37.943Z,96899.77
2019-05-11T21:54:07.432Z,96899.09
2019-05-11T21:56:40.832Z,96899.61
2019-05-11T21:59:09.642Z,96912.80
2019-05-11T22:01:40.084Z,96924.38
2019-05-11T22:04:11.296Z,96923.53
2019-05-11T22:06:41.667Z,96930.09
2019-05-11T22:09:11.996Z,96937.96
2019-05-11T22:11:42.549Z,96936.47
2019-05-11T22:14:12.937Z,96934.83
2019-05-11T22:16:42.932Z,96936.11
2019-05-11T22:19:13.365Z,96940.09
2019-05-11T22:21:43.819Z,96938.80
2019-05-11T22:24:14.438Z,96948.90
2019-05-11T22:26:44.805Z,96951.47
2019-05-11T22:29:18.022Z,96955.01
2019-05-11T22:31:48.674Z,96956.41
2019-05-11T22:34:19.319Z,96967.66
2019-05-11T22:36:49.787Z,96961.88
2019-05-11T22:39:20.843Z,96967.47
2019-05-11T22:41:51.153Z,96966.78
2019-05-11T22:44:29.140Z,96974.38
2019-05-11T22:46:59.459Z,96976.63
2019-05-11T22:49:29.552Z,96988.48
2019-05-11T22:51:59.943Z,96987.20
2019-05-11T22:54:30.001Z,97000.86
2019-05-11T22:57:01.363Z,96999.09
2019-05-11T22:59:31.447Z,96999.05
2019-05-11T23:02:01.787Z,97001.30
2019-05-11T23:04:31.887Z,96999.81
2019-05-11T23:07:02.193Z,97002.06
2019-05-11T23:09:32.206Z,97002.06
2019-05-11T23:12:02.242Z,97007.53
2019-05-11T23:14:32.670Z,97004.63
2019-05-11T23:17:02.933Z,97001.90
2019-05-11T23:19:33.071Z,97014.44
2019-05-11T23:22:05.445Z,97019.70
2019-05-11T23:24:35.451Z,97026.09
2019-05-11T23:27:07.984Z,97025.44
2019-05-11T23:29:38.506Z,97021.22
2019-05-11T23:32:08.769Z,97023.47
2019-05-11T23:34:40.501Z,97032.42
2019-05-11T23:37:10.998Z,97036.77
2019-05-11T23:39:41.090Z,97037.97
2019-05-11T23:42:11.197Z,97035.87
2019-05-11T23:44:41.151Z,97040.69
2019-05-11T23:47:11.256Z,97034.06
2019-05-11T23:49:41.292Z,97039.25
2019-05-11T23:52:11.485Z,97033.30
2019-05-11T23:54:41.975Z,97035.98
2019-05-11T23:57:12.286Z,97041.56
2019-05-11T23:59:42.625Z,97042.17
